sensor_id;sensor_type;location;lat;lon;timestamp;temperature;humidity
15879;DHT22;61999;51.514;14.614;2023-05-29T00:01:03;7.80;42.90
15879;DHT22;61999;51.514;14.614;2023-05-29T00:03:33;7.80;43.10
15879;DHT22;61999;51.514;14.614;2023-05-29T00:06:02;7.80;43.60
15879;DHT22;61999;51.514;14.614;2023-05-29T00:08:32;7.80;44.30
15879;DHT22;61999;51.514;14.614;2023-05-29T00:11:01;7.70;43.60
15879;DHT22;61999;51.514;14.614;2023-05-29T00:13:29;7.70;43.50
15879;DHT22;61999;51.514;14.614;2023-05-29T00:15:57;7.60;43.50
15879;DHT22;61999;51.514;14.614;2023-05-29T00:18:27;7.60;43.70
15879;DHT22;61999;51.514;14.614;2023-05-29T00:20:55;7.50;43.70
15879;DHT22;61999;51.514;14.614;2023-05-29T00:23:23;7.50;43.70
15879;DHT22;61999;51.514;14.614;2023-05-29T00:25:51;7.40;43.70
15879;DHT22;61999;51.514;14.614;2023-05-29T00:28:20;7.40;44.00
15879;DHT22;61999;51.514;14.614;2023-05-29T00:30:48;7.30;44.00
15879;DHT22;61999;51.514;14.614;2023-05-29T00:33:16;7.30;44.10
15879;DHT22;61999;51.514;14.614;2023-05-29T00:35:45;7.20;44.20
15879;DHT22;61999;51.514;14.614;2023-05-29T00:38:13;7.20;44.40
15879;DHT22;61999;51.514;14.614;2023-05-29T00:40:41;7.20;44.60
15879;DHT22;61999;51.514;14.614;2023-05-29T00:43:09;7.20;44.80
15879;DHT22;61999;51.514;14.614;2023-05-29T00:45:38;7.10;45.00
15879;DHT22;61999;51.514;14.614;2023-05-29T00:48:07;7.00;44.90
15879;DHT22;61999;51.514;14.614;2023-05-29T00:50:35;7.00;44.90
15879;DHT22;61999;51.514;14.614;2023-05-29T00:53:04;7.00;45.10
15879;DHT22;61999;51.514;14.614;2023-05-29T00:55:34;7.00;45.30
15879;DHT22;61999;51.514;14.614;2023-05-29T00:58:02;7.00;45.30
15879;DHT22;61999;51.514;14.614;2023-05-29T01:00:32;7.00;45.70
15879;DHT22;61999;51.514;14.614;2023-05-29T01:03:04;6.90;45.60
15879;DHT22;61999;51.514;14.614;2023-05-29T01:05:34;6.90;46.40
15879;DHT22;61999;51.514;14.614;2023-05-29T01:08:03;6.80;46.40
15879;DHT22;61999;51.514;14.614;2023-05-29T01:10:31;6.80;46.80
15879;DHT22;61999;51.514;14.614;2023-05-29T01:13:04;6.80;46.10
15879;DHT22;61999;51.514;14.614;2023-05-29T01:15:41;6.70;46.50
15879;DHT22;61999;51.514;14.614;2023-05-29T01:18:24;6.70;47.00
15879;DHT22;61999;51.514;14.614;2023-05-29T01:21:06;6.70;46.80
15879;DHT22;61999;51.514;14.614;2023-05-29T01:24:11;6.60;46.90
15879;DHT22;61999;51.514;14.614;2023-05-29T01:26:48;6.60;46.70
15879;DHT22;61999;51.514;14.614;2023-05-29T01:29:22;6.50;46.50
15879;DHT22;61999;51.514;14.614;2023-05-29T01:31:52;6.40;46.40
15879;DHT22;61999;51.514;14.614;2023-05-29T01:34:20;6.30;46.50
15879;DHT22;61999;51.514;14.614;2023-05-29T01:36:48;6.30;46.50
15879;DHT22;61999;51.514;14.614;2023-05-29T01:39:16;6.20;46.60
15879;DHT22;61999;51.514;14.614;2023-05-29T01:41:48;6.20;46.70
15879;DHT22;61999;51.514;14.614;2023-05-29T01:44:17;6.20;47.10
15879;DHT22;61999;51.514;14.614;2023-05-29T01:46:46;6.20;49.00
15879;DHT22;61999;51.514;14.614;2023-05-29T01:49:16;6.20;48.20
15879;DHT22;61999;51.514;14.614;2023-05-29T01:51:45;6.20;48.10
15879;DHT22;61999;51.514;14.614;2023-05-29T01:54:13;6.10;47.90
15879;DHT22;61999;51.514;14.614;2023-05-29T01:56:41;6.00;47.60
15879;DHT22;61999;51.514;14.614;2023-05-29T01:59:12;6.00;47.60
15879;DHT22;61999;51.514;14.614;2023-05-29T02:01:41;5.90;47.50
15879;DHT22;61999;51.514;14.614;2023-05-29T02:04:09;5.80;47.50
15879;DHT22;61999;51.514;14.614;2023-05-29T02:06:37;5.70;47.50
15879;DHT22;61999;51.514;14.614;2023-05-29T02:09:05;5.70;47.70
15879;DHT22;61999;51.514;14.614;2023-05-29T02:11:33;5.70;47.70
15879;DHT22;61999;51.514;14.614;2023-05-29T02:14:01;5.60;47.70
15879;DHT22;61999;51.514;14.614;2023-05-29T02:16:32;5.60;47.90
15879;DHT22;61999;51.514;14.614;2023-05-29T02:19:00;5.60;48.20
15879;DHT22;61999;51.514;14.614;2023-05-29T02:21:29;5.60;48.20
15879;DHT22;61999;51.514;14.614;2023-05-29T02:23:58;5.60;48.80
15879;DHT22;61999;51.514;14.614;2023-05-29T02:26:26;5.60;48.50
15879;DHT22;61999;51.514;14.614;2023-05-29T02:28:54;5.50;48.40
15879;DHT22;61999;51.514;14.614;2023-05-29T02:31:22;5.50;48.70
15879;DHT22;61999;51.514;14.614;2023-05-29T02:33:52;5.50;48.60
15879;DHT22;61999;51.514;14.614;2023-05-29T02:36:20;5.50;48.70
15879;DHT22;61999;51.514;14.614;2023-05-29T02:38:47;5.40;48.70
15879;DHT22;61999;51.514;14.614;2023-05-29T02:41:17;5.40;48.70
15879;DHT22;61999;51.514;14.614;2023-05-29T02:43:45;5.40;48.70
15879;DHT22;61999;51.514;14.614;2023-05-29T02:46:13;5.30;48.60
15879;DHT22;61999;51.514;14.614;2023-05-29T02:48:41;5.30;48.60
15879;DHT22;61999;51.514;14.614;2023-05-29T02:51:10;5.30;48.60
15879;DHT22;61999;51.514;14.614;2023-05-29T02:53:38;5.30;48.80
15879;DHT22;61999;51.514;14.614;2023-05-29T02:56:07;5.20;49.30
15879;DHT22;61999;51.514;14.614;2023-05-29T02:58:35;5.20;48.70
15879;DHT22;61999;51.514;14.614;2023-05-29T03:01:03;5.10;48.90
15879;DHT22;61999;51.514;14.614;2023-05-29T03:03:31;5.10;49.30
15879;DHT22;61999;51.514;14.614;2023-05-29T03:06:00;5.10;49.10
15879;DHT22;61999;51.514;14.614;2023-05-29T03:08:31;5.10;49.20
15879;DHT22;61999;51.514;14.614;2023-05-29T03:11:00;5.10;49.10
15879;DHT22;61999;51.514;14.614;2023-05-29T03:13:29;5.10;49.10
15879;DHT22;61999;51.514;14.614;2023-05-29T03:16:01;5.00;49.20
15879;DHT22;61999;51.514;14.614;2023-05-29T03:18:29;5.00;49.20
15879;DHT22;61999;51.514;14.614;2023-05-29T03:20:57;5.00;49.30
15879;DHT22;61999;51.514;14.614;2023-05-29T03:23:25;5.00;49.60
15879;DHT22;61999;51.514;14.614;2023-05-29T03:25:54;5.00;50.60
15879;DHT22;61999;51.514;14.614;2023-05-29T03:28:22;5.00;50.20
15879;DHT22;61999;51.514;14.614;2023-05-29T03:30:50;5.00;50.30
15879;DHT22;61999;51.514;14.614;2023-05-29T03:33:18;5.00;50.10
15879;DHT22;61999;51.514;14.614;2023-05-29T03:35:46;5.00;50.30
15879;DHT22;61999;51.514;14.614;2023-05-29T03:38:14;4.90;50.00
15879;DHT22;61999;51.514;14.614;2023-05-29T03:40:42;5.00;50.40
15879;DHT22;61999;51.514;14.614;2023-05-29T03:43:11;5.00;51.30
15879;DHT22;61999;51.514;14.614;2023-05-29T03:45:39;5.00;50.70
15879;DHT22;61999;51.514;14.614;2023-05-29T03:48:07;5.00;50.50
15879;DHT22;61999;51.514;14.614;2023-05-29T03:50:35;4.90;50.60
15879;DHT22;61999;51.514;14.614;2023-05-29T03:53:03;4.90;50.50
15879;DHT22;61999;51.514;14.614;2023-05-29T03:55:32;4.90;50.60
15879;DHT22;61999;51.514;14.614;2023-05-29T03:58:00;4.90;50.80
15879;DHT22;61999;51.514;14.614;2023-05-29T04:00:29;4.90;50.80
15879;DHT22;61999;51.514;14.614;2023-05-29T04:02:57;5.00;51.00
15879;DHT22;61999;51.514;14.614;2023-05-29T04:05:25;5.00;51.10
15879;DHT22;61999;51.514;14.614;2023-05-29T04:07:53;5.00;51.10
15879;DHT22;61999;51.514;14.614;2023-05-29T04:10:26;5.00;51.20
15879;DHT22;61999;51.514;14.614;2023-05-29T04:12:54;5.00;51.20
15879;DHT22;61999;51.514;14.614;2023-05-29T04:15:22;5.10;51.50
15879;DHT22;61999;51.514;14.614;2023-05-29T04:17:52;5.10;51.40
15879;DHT22;61999;51.514;14.614;2023-05-29T04:20:20;5.10;51.50
15879;DHT22;61999;51.514;14.614;2023-05-29T04:22:48;5.20;51.80
15879;DHT22;61999;51.514;14.614;2023-05-29T04:25:16;5.20;51.70
15879;DHT22;61999;51.514;14.614;2023-05-29T04:27:44;5.20;51.90
15879;DHT22;61999;51.514;14.614;2023-05-29T04:30:16;5.30;51.80
15879;DHT22;61999;51.514;14.614;2023-05-29T04:32:44;5.30;51.80
15879;DHT22;61999;51.514;14.614;2023-05-29T04:35:14;5.30;51.80
15879;DHT22;61999;51.514;14.614;2023-05-29T04:37:42;5.30;51.90
15879;DHT22;61999;51.514;14.614;2023-05-29T04:40:11;5.40;52.00
15879;DHT22;61999;51.514;14.614;2023-05-29T04:42:41;5.40;52.00
15879;DHT22;61999;51.514;14.614;2023-05-29T04:45:11;5.50;52.10
15879;DHT22;61999;51.514;14.614;2023-05-29T04:47:39;5.50;52.10
15879;DHT22;61999;51.514;14.614;2023-05-29T04:50:11;5.60;52.20
15879;DHT22;61999;51.514;14.614;2023-05-29T04:52:41;5.70;52.30
15879;DHT22;61999;51.514;14.614;2023-05-29T04:55:09;5.80;52.40
15879;DHT22;61999;51.514;14.614;2023-05-29T04:57:38;5.80;52.50
15879;DHT22;61999;51.514;14.614;2023-05-29T05:00:08;5.90;52.40
15879;DHT22;61999;51.514;14.614;2023-05-29T05:02:41;6.00;52.40
15879;DHT22;61999;51.514;14.614;2023-05-29T05:05:10;6.10;52.40
15879;DHT22;61999;51.514;14.614;2023-05-29T05:07:40;6.20;52.40
15879;DHT22;61999;51.514;14.614;2023-05-29T05:10:09;6.30;52.50
15879;DHT22;61999;51.514;14.614;2023-05-29T05:12:37;6.30;52.40
15879;DHT22;61999;51.514;14.614;2023-05-29T05:15:09;6.50;52.60
15879;DHT22;61999;51.514;14.614;2023-05-29T05:17:38;6.50;52.60
15879;DHT22;61999;51.514;14.614;2023-05-29T05:20:07;6.60;52.50
15879;DHT22;61999;51.514;14.614;2023-05-29T05:22:36;6.70;52.50
15879;DHT22;61999;51.514;14.614;2023-05-29T05:25:06;6.80;52.50
15879;DHT22;61999;51.514;14.614;2023-05-29T05:27:36;6.90;52.50
15879;DHT22;61999;51.514;14.614;2023-05-29T05:30:05;6.90;52.40
15879;DHT22;61999;51.514;14.614;2023-05-29T05:32:34;7.00;52.40
15879;DHT22;61999;51.514;14.614;2023-05-29T05:35:03;7.10;52.50
15879;DHT22;61999;51.514;14.614;2023-05-29T05:37:31;7.20;52.50
15879;DHT22;61999;51.514;14.614;2023-05-29T05:39:59;7.30;52.60
15879;DHT22;61999;51.514;14.614;2023-05-29T05:42:28;7.40;52.70
15879;DHT22;61999;51.514;14.614;2023-05-29T05:44:57;7.50;52.70
15879;DHT22;61999;51.514;14.614;2023-05-29T05:47:25;7.50;52.80
15879;DHT22;61999;51.514;14.614;2023-05-29T05:49:54;7.60;52.90
15879;DHT22;61999;51.514;14.614;2023-05-29T05:52:23;7.70;52.70
15879;DHT22;61999;51.514;14.614;2023-05-29T05:54:51;7.80;52.80
15879;DHT22;61999;51.514;14.614;2023-05-29T05:57:19;7.80;53.10
15879;DHT22;61999;51.514;14.614;2023-05-29T05:59:48;7.90;52.50
15879;DHT22;61999;51.514;14.614;2023-05-29T06:02:16;8.00;52.40
15879;DHT22;61999;51.514;14.614;2023-05-29T06:04:44;8.20;52.40
15879;DHT22;61999;51.514;14.614;2023-05-29T06:07:12;8.20;52.30
15879;DHT22;61999;51.514;14.614;2023-05-29T06:09:40;8.30;52.30
15879;DHT22;61999;51.514;14.614;2023-05-29T06:12:09;8.40;52.30
15879;DHT22;61999;51.514;14.614;2023-05-29T06:14:37;8.40;52.10
15879;DHT22;61999;51.514;14.614;2023-05-29T06:17:06;8.50;52.00
15879;DHT22;61999;51.514;14.614;2023-05-29T06:19:34;8.60;52.00
15879;DHT22;61999;51.514;14.614;2023-05-29T06:22:02;8.70;52.10
15879;DHT22;61999;51.514;14.614;2023-05-29T06:24:30;8.80;52.40
15879;DHT22;61999;51.514;14.614;2023-05-29T06:26:58;8.90;52.10
15879;DHT22;61999;51.514;14.614;2023-05-29T06:29:26;9.00;52.00
15879;DHT22;61999;51.514;14.614;2023-05-29T06:31:54;9.10;51.90
15879;DHT22;61999;51.514;14.614;2023-05-29T06:34:24;9.20;52.10
15879;DHT22;61999;51.514;14.614;2023-05-29T06:36:52;9.20;51.90
15879;DHT22;61999;51.514;14.614;2023-05-29T06:39:20;9.30;52.00
15879;DHT22;61999;51.514;14.614;2023-05-29T06:41:48;9.40;51.90
15879;DHT22;61999;51.514;14.614;2023-05-29T06:44:16;9.40;51.80
15879;DHT22;61999;51.514;14.614;2023-05-29T06:46:44;9.60;52.20
15879;DHT22;61999;51.514;14.614;2023-05-29T06:49:12;9.70;52.00
15879;DHT22;61999;51.514;14.614;2023-05-29T06:51:41;9.80;52.00
15879;DHT22;61999;51.514;14.614;2023-05-29T06:54:09;10.00;51.90
15879;DHT22;61999;51.514;14.614;2023-05-29T06:56:37;10.00;51.80
15879;DHT22;61999;51.514;14.614;2023-05-29T06:59:05;10.00;51.60
15879;DHT22;61999;51.514;14.614;2023-05-29T07:01:33;10.10;51.70
15879;DHT22;61999;51.514;14.614;2023-05-29T07:04:02;10.10;51.50
15879;DHT22;61999;51.514;14.614;2023-05-29T07:06:31;10.30;51.80
15879;DHT22;61999;51.514;14.614;2023-05-29T07:09:01;10.40;51.60
15879;DHT22;61999;51.514;14.614;2023-05-29T07:11:29;10.50;51.70
15879;DHT22;61999;51.514;14.614;2023-05-29T07:13:57;10.50;51.50
15879;DHT22;61999;51.514;14.614;2023-05-29T07:16:25;10.60;51.50
15879;DHT22;61999;51.514;14.614;2023-05-29T07:18:53;10.70;51.10
15879;DHT22;61999;51.514;14.614;2023-05-29T07:21:21;10.80;50.90
15879;DHT22;61999;51.514;14.614;2023-05-29T07:23:49;10.90;51.00
15879;DHT22;61999;51.514;14.614;2023-05-29T07:26:18;10.90;50.90
15879;DHT22;61999;51.514;14.614;2023-05-29T07:28:47;11.00;50.90
15879;DHT22;61999;51.514;14.614;2023-05-29T07:31:15;11.10;50.60
15879;DHT22;61999;51.514;14.614;2023-05-29T07:33:43;11.30;50.50
15879;DHT22;61999;51.514;14.614;2023-05-29T07:36:11;11.40;50.70
15879;DHT22;61999;51.514;14.614;2023-05-29T07:38:39;11.60;50.90
15879;DHT22;61999;51.514;14.614;2023-05-29T07:41:07;11.80;50.70
15879;DHT22;61999;51.514;14.614;2023-05-29T07:43:36;12.00;50.30
15879;DHT22;61999;51.514;14.614;2023-05-29T07:46:05;12.20;50.10
15879;DHT22;61999;51.514;14.614;2023-05-29T07:48:32;12.40;49.70
15879;DHT22;61999;51.514;14.614;2023-05-29T07:51:00;12.70;49.40
15879;DHT22;61999;51.514;14.614;2023-05-29T07:53:29;12.80;49.40
15879;DHT22;61999;51.514;14.614;2023-05-29T07:55:57;13.20;47.50
15879;DHT22;61999;51.514;14.614;2023-05-29T07:58:25;13.40;47.10
15879;DHT22;61999;51.514;14.614;2023-05-29T08:00:55;13.50;46.60
15879;DHT22;61999;51.514;14.614;2023-05-29T08:03:23;13.70;46.20
15879;DHT22;61999;51.514;14.614;2023-05-29T08:05:51;13.90;46.60
15879;DHT22;61999;51.514;14.614;2023-05-29T08:08:19;14.10;46.80
15879;DHT22;61999;51.514;14.614;2023-05-29T08:10:47;14.20;43.90
15879;DHT22;61999;51.514;14.614;2023-05-29T08:13:15;14.40;44.90
15879;DHT22;61999;51.514;14.614;2023-05-29T08:15:43;14.60;45.40
15879;DHT22;61999;51.514;14.614;2023-05-29T08:18:13;14.80;45.60
15879;DHT22;61999;51.514;14.614;2023-05-29T08:20:41;15.10;44.60
15879;DHT22;61999;51.514;14.614;2023-05-29T08:23:11;15.40;43.60
15879;DHT22;61999;51.514;14.614;2023-05-29T08:25:39;15.50;43.30
15879;DHT22;61999;51.514;14.614;2023-05-29T08:28:07;15.70;43.30
15879;DHT22;61999;51.514;14.614;2023-05-29T08:30:35;16.00;40.80
15879;DHT22;61999;51.514;14.614;2023-05-29T08:33:03;16.30;40.80
15879;DHT22;61999;51.514;14.614;2023-05-29T08:35:33;16.40;41.00
15879;DHT22;61999;51.514;14.614;2023-05-29T08:38:01;16.60;40.60
15879;DHT22;61999;51.514;14.614;2023-05-29T08:40:29;16.70;40.70
15879;DHT22;61999;51.514;14.614;2023-05-29T08:42:59;16.90;41.40
15879;DHT22;61999;51.514;14.614;2023-05-29T08:45:34;17.10;41.90
15879;DHT22;61999;51.514;14.614;2023-05-29T08:48:09;17.40;41.10
15879;DHT22;61999;51.514;14.614;2023-05-29T08:50:44;17.60;40.80
15879;DHT22;61999;51.514;14.614;2023-05-29T08:53:13;18.00;38.80
15879;DHT22;61999;51.514;14.614;2023-05-29T08:55:42;18.40;36.30
15879;DHT22;61999;51.514;14.614;2023-05-29T08:58:11;18.30;37.30
15879;DHT22;61999;51.514;14.614;2023-05-29T09:00:40;18.40;37.30
15879;DHT22;61999;51.514;14.614;2023-05-29T09:03:08;18.40;37.30
15879;DHT22;61999;51.514;14.614;2023-05-29T09:05:39;18.50;37.50
15879;DHT22;61999;51.514;14.614;2023-05-29T09:08:09;18.70;36.80
15879;DHT22;61999;51.514;14.614;2023-05-29T09:10:39;18.90;36.00
15879;DHT22;61999;51.514;14.614;2023-05-29T09:13:08;19.00;36.30
15879;DHT22;61999;51.514;14.614;2023-05-29T09:15:36;19.20;35.00
15879;DHT22;61999;51.514;14.614;2023-05-29T09:18:06;19.40;35.80
15879;DHT22;61999;51.514;14.614;2023-05-29T09:20:35;19.60;35.00
15879;DHT22;61999;51.514;14.614;2023-05-29T09:23:06;19.90;34.50
15879;DHT22;61999;51.514;14.614;2023-05-29T09:25:40;20.00;33.90
15879;DHT22;61999;51.514;14.614;2023-05-29T09:28:09;20.30;34.00
15879;DHT22;61999;51.514;14.614;2023-05-29T09:30:39;20.70;31.70
15879;DHT22;61999;51.514;14.614;2023-05-29T09:33:09;20.70;31.70
15879;DHT22;61999;51.514;14.614;2023-05-29T09:35:39;20.80;30.60
15879;DHT22;61999;51.514;14.614;2023-05-29T09:38:11;20.90;31.50
15879;DHT22;61999;51.514;14.614;2023-05-29T09:40:46;21.00;32.20
15879;DHT22;61999;51.514;14.614;2023-05-29T09:43:15;21.30;33.00
15879;DHT22;61999;51.514;14.614;2023-05-29T09:45:45;21.50;32.10
15879;DHT22;61999;51.514;14.614;2023-05-29T09:48:15;21.80;32.70
15879;DHT22;61999;51.514;14.614;2023-05-29T09:50:45;22.20;32.20
15879;DHT22;61999;51.514;14.614;2023-05-29T09:53:20;22.50;31.50
15879;DHT22;61999;51.514;14.614;2023-05-29T09:55:51;22.90;31.20
15879;DHT22;61999;51.514;14.614;2023-05-29T09:58:21;23.20;30.00
15879;DHT22;61999;51.514;14.614;2023-05-29T10:00:51;23.50;29.30
15879;DHT22;61999;51.514;14.614;2023-05-29T10:03:20;23.70;29.30
15879;DHT22;61999;51.514;14.614;2023-05-29T10:05:50;23.90;29.20
15879;DHT22;61999;51.514;14.614;2023-05-29T10:08:21;24.00;29.10
15879;DHT22;61999;51.514;14.614;2023-05-29T10:10:54;24.20;29.10
15879;DHT22;61999;51.514;14.614;2023-05-29T10:13:28;24.40;28.90
15879;DHT22;61999;51.514;14.614;2023-05-29T10:16:03;24.70;28.90
15879;DHT22;61999;51.514;14.614;2023-05-29T10:18:37;24.90;28.80
15879;DHT22;61999;51.514;14.614;2023-05-29T10:21:07;25.30;27.90
15879;DHT22;61999;51.514;14.614;2023-05-29T10:23:47;25.60;28.30
15879;DHT22;61999;51.514;14.614;2023-05-29T10:26:20;25.80;28.10
15879;DHT22;61999;51.514;14.614;2023-05-29T10:28:55;26.10;28.20
15879;DHT22;61999;51.514;14.614;2023-05-29T10:31:30;26.40;27.20
15879;DHT22;61999;51.514;14.614;2023-05-29T10:34:10;26.80;27.00
15879;DHT22;61999;51.514;14.614;2023-05-29T10:36:52;27.10;26.90
15879;DHT22;61999;51.514;14.614;2023-05-29T10:39:28;27.40;26.00
15879;DHT22;61999;51.514;14.614;2023-05-29T10:41:57;27.70;23.70
15879;DHT22;61999;51.514;14.614;2023-05-29T10:44:38;27.80;25.50
15879;DHT22;61999;51.514;14.614;2023-05-29T10:47:10;27.90;26.10
15879;DHT22;61999;51.514;14.614;2023-05-29T10:49:39;28.10;25.40
15879;DHT22;61999;51.514;14.614;2023-05-29T10:52:10;28.40;25.10
15879;DHT22;61999;51.514;14.614;2023-05-29T10:54:51;28.70;23.30
15879;DHT22;61999;51.514;14.614;2023-05-29T10:57:21;29.00;22.60
15879;DHT22;61999;51.514;14.614;2023-05-29T11:00:02;29.30;23.60
15879;DHT22;61999;51.514;14.614;2023-05-29T11:02:39;29.40;23.60
15879;DHT22;61999;51.514;14.614;2023-05-29T11:05:19;29.60;22.10
15879;DHT22;61999;51.514;14.614;2023-05-29T11:07:55;29.60;23.20
15879;DHT22;61999;51.514;14.614;2023-05-29T11:10:55;29.60;23.40
15879;DHT22;61999;51.514;14.614;2023-05-29T11:13:25;29.50;23.70
15879;DHT22;61999;51.514;14.614;2023-05-29T11:16:05;29.50;23.10
15879;DHT22;61999;51.514;14.614;2023-05-29T11:18:43;29.50;23.60
15879;DHT22;61999;51.514;14.614;2023-05-29T11:21:23;29.60;22.70
15879;DHT22;61999;51.514;14.614;2023-05-29T11:24:00;29.90;21.40
15879;DHT22;61999;51.514;14.614;2023-05-29T11:26:37;30.10;20.80
15879;DHT22;61999;51.514;14.614;2023-05-29T11:29:06;30.10;22.00
15879;DHT22;61999;51.514;14.614;2023-05-29T11:31:39;30.10;22.40
15879;DHT22;61999;51.514;14.614;2023-05-29T11:34:09;30.30;22.90
15879;DHT22;61999;51.514;14.614;2023-05-29T11:36:42;30.60;22.20
15879;DHT22;61999;51.514;14.614;2023-05-29T11:39:10;30.70;22.60
15879;DHT22;61999;51.514;14.614;2023-05-29T11:41:40;30.90;22.10
15879;DHT22;61999;51.514;14.614;2023-05-29T11:44:08;31.00;21.80
15879;DHT22;61999;51.514;14.614;2023-05-29T11:46:36;30.90;21.40
15879;DHT22;61999;51.514;14.614;2023-05-29T11:49:04;30.70;21.40
15879;DHT22;61999;51.514;14.614;2023-05-29T11:51:32;30.30;21.10
15879;DHT22;61999;51.514;14.614;2023-05-29T11:54:00;29.90;21.50
15879;DHT22;61999;51.514;14.614;2023-05-29T11:56:29;29.40;21.70
15879;DHT22;61999;51.514;14.614;2023-05-29T11:58:59;29.10;22.20
15879;DHT22;61999;51.514;14.614;2023-05-29T12:01:28;28.90;22.50
15879;DHT22;61999;51.514;14.614;2023-05-29T12:03:56;28.70;22.70
15879;DHT22;61999;51.514;14.614;2023-05-29T12:06:31;28.50;22.80
15879;DHT22;61999;51.514;14.614;2023-05-29T12:09:00;28.30;22.70
15879;DHT22;61999;51.514;14.614;2023-05-29T12:11:30;28.30;23.50
15879;DHT22;61999;51.514;14.614;2023-05-29T12:14:00;28.40;23.90
15879;DHT22;61999;51.514;14.614;2023-05-29T12:16:30;28.70;24.30
15879;DHT22;61999;51.514;14.614;2023-05-29T12:19:01;29.10;24.20
15879;DHT22;61999;51.514;14.614;2023-05-29T12:21:29;29.60;23.40
15879;DHT22;61999;51.514;14.614;2023-05-29T12:23:58;30.10;22.30
15879;DHT22;61999;51.514;14.614;2023-05-29T12:26:30;30.70;21.00
15879;DHT22;61999;51.514;14.614;2023-05-29T12:29:02;30.50;22.30
15879;DHT22;61999;51.514;14.614;2023-05-29T12:31:32;30.60;21.70
15879;DHT22;61999;51.514;14.614;2023-05-29T12:34:02;30.80;22.20
15879;DHT22;61999;51.514;14.614;2023-05-29T12:36:34;31.20;21.10
15879;DHT22;61999;51.514;14.614;2023-05-29T12:39:06;31.00;21.20
15879;DHT22;61999;51.514;14.614;2023-05-29T12:41:37;31.10;21.50
15879;DHT22;61999;51.514;14.614;2023-05-29T12:44:07;31.20;21.70
15879;DHT22;61999;51.514;14.614;2023-05-29T12:46:37;31.40;21.60
15879;DHT22;61999;51.514;14.614;2023-05-29T12:49:12;31.70;21.60
15879;DHT22;61999;51.514;14.614;2023-05-29T12:51:41;32.10;21.70
15879;DHT22;61999;51.514;14.614;2023-05-29T12:54:10;32.60;21.80
15879;DHT22;61999;51.514;14.614;2023-05-29T12:56:39;32.80;21.30
15879;DHT22;61999;51.514;14.614;2023-05-29T12:59:10;33.10;21.40
15879;DHT22;61999;51.514;14.614;2023-05-29T13:01:38;33.40;21.40
15879;DHT22;61999;51.514;14.614;2023-05-29T13:04:07;33.80;20.40
15879;DHT22;61999;51.514;14.614;2023-05-29T13:06:37;34.00;20.40
15879;DHT22;61999;51.514;14.614;2023-05-29T13:09:06;34.20;20.30
15879;DHT22;61999;51.514;14.614;2023-05-29T13:11:35;34.40;20.30
15879;DHT22;61999;51.514;14.614;2023-05-29T13:14:04;34.70;20.40
15879;DHT22;61999;51.514;14.614;2023-05-29T13:16:33;34.90;19.40
15879;DHT22;61999;51.514;14.614;2023-05-29T13:19:02;35.00;19.60
15879;DHT22;61999;51.514;14.614;2023-05-29T13:21:30;35.20;20.00
15879;DHT22;61999;51.514;14.614;2023-05-29T13:23:59;35.40;19.00
15879;DHT22;61999;51.514;14.614;2023-05-29T13:26:27;35.40;18.90
15879;DHT22;61999;51.514;14.614;2023-05-29T13:28:55;35.20;18.70
15879;DHT22;61999;51.514;14.614;2023-05-29T13:31:23;34.80;18.80
15879;DHT22;61999;51.514;14.614;2023-05-29T13:33:52;34.40;18.60
15879;DHT22;61999;51.514;14.614;2023-05-29T13:36:20;33.90;18.80
15879;DHT22;61999;51.514;14.614;2023-05-29T13:38:49;33.60;18.90
15879;DHT22;61999;51.514;14.614;2023-05-29T13:41:16;33.10;18.80
15879;DHT22;61999;51.514;14.614;2023-05-29T13:43:44;32.70;19.40
15879;DHT22;61999;51.514;14.614;2023-05-29T13:46:12;32.20;19.40
15879;DHT22;61999;51.514;14.614;2023-05-29T13:48:41;31.70;19.80
15879;DHT22;61999;51.514;14.614;2023-05-29T13:51:10;31.30;20.20
15879;DHT22;61999;51.514;14.614;2023-05-29T13:53:38;31.00;20.40
15879;DHT22;61999;51.514;14.614;2023-05-29T13:56:06;30.90;20.20
15879;DHT22;61999;51.514;14.614;2023-05-29T13:58:34;30.70;20.60
15879;DHT22;61999;51.514;14.614;2023-05-29T14:01:02;30.50;20.60
15879;DHT22;61999;51.514;14.614;2023-05-29T14:03:31;30.50;20.80
15879;DHT22;61999;51.514;14.614;2023-05-29T14:05:59;30.40;20.90
15879;DHT22;61999;51.514;14.614;2023-05-29T14:08:28;30.40;20.70
15879;DHT22;61999;51.514;14.614;2023-05-29T14:10:56;30.20;20.90
15879;DHT22;61999;51.514;14.614;2023-05-29T14:13:24;30.20;21.70
15879;DHT22;61999;51.514;14.614;2023-05-29T14:15:52;30.10;21.30
15879;DHT22;61999;51.514;14.614;2023-05-29T14:18:23;30.20;21.40
15879;DHT22;61999;51.514;14.614;2023-05-29T14:20:51;30.40;21.20
15879;DHT22;61999;51.514;14.614;2023-05-29T14:23:19;30.40;21.20
15879;DHT22;61999;51.514;14.614;2023-05-29T14:25:48;30.40;21.10
15879;DHT22;61999;51.514;14.614;2023-05-29T14:28:17;30.20;20.70
15879;DHT22;61999;51.514;14.614;2023-05-29T14:30:45;29.90;20.60
15879;DHT22;61999;51.514;14.614;2023-05-29T14:33:13;29.70;20.90
15879;DHT22;61999;51.514;14.614;2023-05-29T14:35:41;29.40;21.20
15879;DHT22;61999;51.514;14.614;2023-05-29T14:38:09;29.10;21.30
15879;DHT22;61999;51.514;14.614;2023-05-29T14:40:37;28.90;21.50
15879;DHT22;61999;51.514;14.614;2023-05-29T14:43:07;28.60;21.50
15879;DHT22;61999;51.514;14.614;2023-05-29T14:45:34;28.30;21.90
15879;DHT22;61999;51.514;14.614;2023-05-29T14:48:03;28.10;22.10
15879;DHT22;61999;51.514;14.614;2023-05-29T14:50:31;27.80;22.10
15879;DHT22;61999;51.514;14.614;2023-05-29T14:52:59;27.40;22.00
15879;DHT22;61999;51.514;14.614;2023-05-29T14:55:27;27.10;22.40
15879;DHT22;61999;51.514;14.614;2023-05-29T14:57:57;26.80;22.30
15879;DHT22;61999;51.514;14.614;2023-05-29T15:00:26;26.60;22.50
15879;DHT22;61999;51.514;14.614;2023-05-29T15:02:54;26.50;23.00
15879;DHT22;61999;51.514;14.614;2023-05-29T15:05:25;26.50;24.30
15879;DHT22;61999;51.514;14.614;2023-05-29T15:07:54;26.80;23.70
15879;DHT22;61999;51.514;14.614;2023-05-29T15:10:23;27.20;24.00
15879;DHT22;61999;51.514;14.614;2023-05-29T15:12:52;27.60;23.70
15879;DHT22;61999;51.514;14.614;2023-05-29T15:17:55;28.50;22.70
15879;DHT22;61999;51.514;14.614;2023-05-29T15:20:24;28.80;22.70
15879;DHT22;61999;51.514;14.614;2023-05-29T15:22:53;29.00;22.70
15879;DHT22;61999;51.514;14.614;2023-05-29T15:25:21;29.30;22.80
15879;DHT22;61999;51.514;14.614;2023-05-29T15:27:49;29.50;22.80
15879;DHT22;61999;51.514;14.614;2023-05-29T15:30:19;29.90;22.30
15879;DHT22;61999;51.514;14.614;2023-05-29T15:32:48;30.20;22.10
15879;DHT22;61999;51.514;14.614;2023-05-29T15:35:17;30.50;21.90
15879;DHT22;61999;51.514;14.614;2023-05-29T15:37:45;30.60;21.40
15879;DHT22;61999;51.514;14.614;2023-05-29T15:40:13;30.60;21.40